Time;durP1;ratioP1;P1;durP2;ratioP2;P2;SDS_P1;SDS_P2;PMS_P1;PMS_P2;Temp;Humidity;BMP_temperature;BMP_pressure;BME280_temperature;BME280_humidity;BME280_pressure;Samples;Min_cycle;Max_cycle;Signal;HPM_P1;HPM_P2
2024/03/06 00:01:48;;;;;;;17.83;12.75;;;;;;;;;;4979412;28;20030;-88
2024/03/06 00:04:19;;;;;;;21.23;14.15;;;;;;;;;;4972117;28;20041;-88
2024/03/06 00:06:57;;;;;;;;;;;;;;;;;;;;;
2024/03/06 00:09:27;;;;;;;21.58;13.43;;;;;;;;;;4992705;28;20500;-88
2024/03/06 00:12:02;;;;;;;20.70;13.43;;;;;;;;;;4969357;28;20520;-90
2024/03/06 00:14:35;;;;;;;22.15;13.13;;;;;;;;;;4989477;28;20030;-89
2024/03/06 00:17:03;;;;;;;20.30;13.52;;;;;;;;;;4984120;28;20041;-88
2024/03/06 00:19:28;;;;;;;19.95;12.93;;;;;;;;;;4970888;28;20450;-89
2024/03/06 00:21:56;;;;;;;20.10;12.88;;;;;;;;;;4986440;28;20065;-87
2024/03/06 00:24:25;;;;;;;18.85;13.13;;;;;;;;;;4970075;28;20042;-86
2024/03/06 00:26:50;;;;;;;18.58;13.13;;;;;;;;;;4984561;28;20141;-86
2024/03/06 00:29:19;;;;;;;19.30;13.45;;;;;;;;;;4970487;28;20113;-86
2024/03/06 00:31:48;;;;;;;19.90;14.00;;;;;;;;;;4970614;28;20022;-87
2024/03/06 00:34:19;;;;;;;18.02;12.80;;;;;;;;;;4985166;28;20520;-87
2024/03/06 00:36:48;;;;;;;17.63;12.18;;;;;;;;;;4983969;28;20035;-87
2024/03/06 00:39:14;;;;;;;19.23;13.35;;;;;;;;;;4983301;28;20046;-88
2024/03/06 00:41:47;;;;;;;17.73;12.88;;;;;;;;;;4969166;28;20458;-88
2024/03/06 00:44:13;;;;;;;;;;;;;;;;;;4970330;28;20038;-88
2024/03/06 00:46:41;;;;;;;17.33;11.65;;;;;;;;;;4986170;28;19914;-86
2024/03/06 00:49:06;;;;;;;18.38;12.80;;;;;;;;;;4966959;28;20053;-87
2024/03/06 00:51:36;;;;;;;18.77;12.27;;;;;;;;;;4967014;28;20038;-87
2024/03/06 00:54:04;;;;;;;18.15;12.80;;;;;;;;;;4971203;28;20549;-87
2024/03/06 00:56:32;;;;;;;18.38;12.43;;;;;;;;;;4965187;28;20084;-86
2024/03/06 00:59:00;;;;;;;18.60;12.27;;;;;;;;;;4964689;28;20018;-87
2024/03/06 01:01:27;;;;;;;18.45;12.60;;;;;;;;;;4969756;28;20035;-87
2024/03/06 01:03:56;;;;;;;18.45;12.43;;;;;;;;;;4964119;28;20038;-86
2024/03/06 01:06:39;;;;;;;18.27;13.07;;;;;;;;;;4966462;28;20073;-87
2024/03/06 01:09:08;;;;;;;18.52;13.40;;;;;;;;;;4984622;28;21553;-87
2024/03/06 01:11:36;;;;;;;17.10;11.88;;;;;;;;;;4986830;28;20030;-87
2024/03/06 01:14:04;;;;;;;20.02;12.90;;;;;;;;;;4967606;28;20109;-87
2024/03/06 01:16:29;;;;;;;18.60;12.45;;;;;;;;;;4984484;28;20030;-86
2024/03/06 01:18:55;;;;;;;18.77;12.95;;;;;;;;;;4969859;28;20022;-87
2024/03/06 01:21:23;;;;;;;16.20;12.38;;;;;;;;;;4966549;28;20030;-87
2024/03/06 01:24:14;;;;;;;18.50;12.15;;;;;;;;;;4984652;28;20032;-86
2024/03/06 01:26:40;;;;;;;16.48;11.93;;;;;;;;;;4985048;28;20399;-87
2024/03/06 01:29:06;;;;;;;15.52;11.32;;;;;;;;;;4965138;28;20085;-87
2024/03/06 01:31:31;;;;;;;16.55;11.18;;;;;;;;;;4969143;28;20046;-87
2024/03/06 01:33:59;;;;;;;16.33;10.88;;;;;;;;;;4983332;28;20559;-87
2024/03/06 01:36:25;;;;;;;13.50;10.07;;;;;;;;;;4982849;28;20057;-87
2024/03/06 01:38:53;;;;;;;12.88;9.48;;;;;;;;;;4967971;28;20029;-87
2024/03/06 01:41:24;;;;;;;13.48;10.02;;;;;;;;;;4986369;28;20109;-87
2024/03/06 01:43:52;;;;;;;13.68;9.75;;;;;;;;;;4972738;28;20085;-87
2024/03/06 01:46:17;;;;;;;13.55;9.23;;;;;;;;;;4967301;28;20421;-87
2024/03/06 01:48:46;;;;;;;13.52;10.38;;;;;;;;;;4969477;28;20030;-87
2024/03/06 01:51:14;;;;;;;12.18;9.57;;;;;;;;;;4967912;28;20105;-87
2024/03/06 01:53:40;;;;;;;12.55;9.82;;;;;;;;;;4968421;28;20496;-87
2024/03/06 01:56:17;;;;;;;12.85;10.15;;;;;;;;;;4968166;28;20027;-87
2024/03/06 01:58:48;;;;;;;13.35;10.35;;;;;;;;;;4982267;28;20037;-88
2024/03/06 02:01:15;;;;;;;14.02;10.13;;;;;;;;;;4981742;28;20105;-90
2024/03/06 02:03:41;;;;;;;12.02;10.07;;;;;;;;;;4952639;23;20063;-80
2024/03/06 02:06:06;;;;;;;13.10;10.32;;;;;;;;;;4945461;29;20109;-82
2024/03/06 02:08:32;;;;;;;14.68;10.93;;;;;;;;;;4945318;28;20474;-82
2024/03/06 02:11:00;;;;;;;14.05;10.65;;;;;;;;;;4944567;29;20023;-82
2024/03/06 02:13:25;;;;;;;14.75;11.00;;;;;;;;;;4944498;28;20528;-82
2024/03/06 02:15:51;;;;;;;14.93;11.57;;;;;;;;;;4946871;29;20042;-82
2024/03/06 02:18:16;;;;;;;15.43;11.00;;;;;;;;;;4947977;28;20034;-82
2024/03/06 02:20:41;;;;;;;15.25;10.85;;;;;;;;;;4946666;29;20102;-81
2024/03/06 02:23:07;;;;;;;15.05;11.18;;;;;;;;;;4928676;28;20027;-82
2024/03/06 02:25:32;;;;;;;14.57;11.23;;;;;;;;;;4948135;29;20027;-81
2024/03/06 02:27:58;;;;;;;16.55;11.63;;;;;;;;;;4945021;28;20027;-80
2024/03/06 02:30:24;;;;;;;16.60;11.98;;;;;;;;;;4946250;29;20038;-80
2024/03/06 02:32:49;;;;;;;15.18;11.68;;;;;;;;;;4946215;28;20401;-80
2024/03/06 02:35:15;;;;;;;15.63;11.50;;;;;;;;;;4952702;29;20035;-82
2024/03/06 02:37:44;;;;;;;14.35;10.77;;;;;;;;;;4949786;28;20039;-80
2024/03/06 02:40:09;;;;;;;14.68;10.68;;;;;;;;;;4932199;29;20031;-82
2024/03/06 02:42:38;;;;;;;13.63;10.90;;;;;;;;;;4952235;29;20027;-80
2024/03/06 02:45:05;;;;;;;13.80;10.85;;;;;;;;;;4936609;29;20165;-81
2024/03/06 02:47:30;;;;;;;15.93;11.00;;;;;;;;;;4949208;28;20031;-80
2024/03/06 02:49:55;;;;;;;15.13;11.43;;;;;;;;;;4936895;29;20042;-80
2024/03/06 02:52:21;;;;;;;14.20;11.48;;;;;;;;;;4931252;29;20027;-80
2024/03/06 02:54:46;;;;;;;14.77;11.25;;;;;;;;;;4947826;29;20492;-80
2024/03/06 02:57:11;;;;;;;16.45;12.35;;;;;;;;;;4951618;28;20039;-80
2024/03/06 02:59:39;;;;;;;18.55;12.65;;;;;;;;;;4935658;29;20019;-81
2024/03/06 03:02:05;;;;;;;16.38;11.85;;;;;;;;;;4933928;28;20035;-80
2024/03/06 03:04:30;;;;;;;16.00;12.35;;;;;;;;;;4952194;28;20371;-81
2024/03/06 03:06:55;;;;;;;17.38;12.27;;;;;;;;;;4943865;28;20075;-80
2024/03/06 03:09:21;;;;;;;17.35;12.85;;;;;;;;;;4936561;29;20031;-75
2024/03/06 03:11:46;;;;;;;15.75;12.18;;;;;;;;;;4945674;29;20474;-76
2024/03/06 03:14:11;;;;;;;16.30;12.27;;;;;;;;;;4945976;29;20417;-75
2024/03/06 03:16:37;;;;;;;18.30;12.60;;;;;;;;;;4948081;28;20035;-75
2024/03/06 03:19:02;;;;;;;17.40;12.52;;;;;;;;;;4946168;28;20098;-75
2024/03/06 03:21:28;;;;;;;16.13;11.70;;;;;;;;;;4944249;29;20115;-76
2024/03/06 03:23:53;;;;;;;15.57;12.27;;;;;;;;;;4936631;29;20110;-75
2024/03/06 03:26:18;;;;;;;18.10;12.55;;;;;;;;;;4946591;29;20031;-76
2024/03/06 03:28:44;;;;;;;16.65;11.70;;;;;;;;;;4944146;28;20127;-76
2024/03/06 03:31:10;;;;;;;18.00;12.35;;;;;;;;;;4950794;29;20441;-76
2024/03/06 03:33:44;;;;;;;16.75;12.70;;;;;;;;;;4946333;28;20043;-76
2024/03/06 03:36:10;;;;;;;18.73;13.00;;;;;;;;;;4942970;28;20033;-76
2024/03/06 03:38:38;;;;;;;18.15;12.90;;;;;;;;;;4948173;28;20035;-75
2024/03/06 03:41:12;;;;;;;16.40;12.45;;;;;;;;;;4948207;29;20054;-75
2024/03/06 03:43:41;;;;;;;16.38;12.80;;;;;;;;;;4950997;28;20027;-75
2024/03/06 03:46:06;;;;;;;20.77;13.63;;;;;;;;;;4944130;29;20027;-76
2024/03/06 03:48:35;;;;;;;17.25;13.68;;;;;;;;;;4949286;29;20029;-75
2024/03/06 03:51:04;;;;;;;16.38;12.55;;;;;;;;;;4934812;29;20413;-75
2024/03/06 03:53:30;;;;;;;16.77;13.23;;;;;;;;;;4935419;29;20027;-75
2024/03/06 03:55:55;;;;;;;16.33;12.45;;;;;;;;;;4947276;28;20034;-76
2024/03/06 03:58:20;;;;;;;17.67;12.88;;;;;;;;;;4947301;28;20038;-76
2024/03/06 04:00:46;;;;;;;18.08;12.35;;;;;;;;;;4946546;29;20435;-75
2024/03/06 04:03:11;;;;;;;17.10;12.73;;;;;;;;;;4948751;28;20027;-75
2024/03/06 04:05:37;;;;;;;17.73;12.95;;;;;;;;;;4932153;29;20035;-75
2024/03/06 04:08:02;;;;;;;20.83;12.52;;;;;;;;;;4948489;29;20737;-75
2024/03/06 04:10:27;;;;;;;17.38;13.23;;;;;;;;;;4949213;29;20078;-75
2024/03/06 04:12:53;;;;;;;17.13;13.07;;;;;;;;;;4952185;29;20034;-75
2024/03/06 04:15:19;;;;;;;17.17;12.70;;;;;;;;;;4950451;28;20054;-75
2024/03/06 04:17:44;;;;;;;18.02;13.10;;;;;;;;;;4926904;29;20039;-80
2024/03/06 04:20:11;;;;;;;16.13;12.15;;;;;;;;;;4948063;29;20023;-75
2024/03/06 04:22:38;;;;;;;18.10;13.60;;;;;;;;;;4928831;29;20031;-75
2024/03/06 04:25:04;;;;;;;17.80;13.30;;;;;;;;;;4946290;28;20085;-75
2024/03/06 04:27:30;;;;;;;18.85;13.95;;;;;;;;;;4950860;29;20019;-75
2024/03/06 04:29:55;;;;;;;18.08;13.60;;;;;;;;;;4951064;29;20106;-75
2024/03/06 04:32:21;;;;;;;17.83;13.20;;;;;;;;;;4945759;28;20119;-75
2024/03/06 04:34:46;;;;;;;19.27;14.02;;;;;;;;;;4949228;28;20034;-75
2024/03/06 04:37:12;;;;;;;20.27;14.45;;;;;;;;;;4949355;28;20031;-76
2024/03/06 04:39:37;;;;;;;20.05;14.32;;;;;;;;;;4951618;29;20086;-75
2024/03/06 04:42:03;;;;;;;20.98;15.60;;;;;;;;;;4949974;29;20474;-75
2024/03/06 04:44:28;;;;;;;21.67;15.52;;;;;;;;;;4946710;28;20031;-75
2024/03/06 04:46:53;;;;;;;24.67;15.93;;;;;;;;;;4933180;29;20493;-75
2024/03/06 04:49:19;;;;;;;20.63;15.52;;;;;;;;;;4931942;29;20075;-75
2024/03/06 04:51:44;;;;;;;20.63;15.73;;;;;;;;;;4945546;29;20031;-75
2024/03/06 04:54:09;;;;;;;22.80;16.13;;;;;;;;;;4945152;29;20036;-75
2024/03/06 04:56:35;;;;;;;21.27;15.63;;;;;;;;;;4952929;28;20023;-75
2024/03/06 04:59:03;;;;;;;23.02;16.00;;;;;;;;;;4948091;28;20034;-75
2024/03/06 05:01:29;;;;;;;21.23;15.73;;;;;;;;;;4927983;29;20118;-75
2024/03/06 05:03:55;;;;;;;23.75;17.33;;;;;;;;;;4927546;28;20458;-76
2024/03/06 05:06:22;;;;;;;24.23;17.55;;;;;;;;;;4942827;29;20023;-75
2024/03/06 05:08:47;;;;;;;22.50;16.50;;;;;;;;;;4942654;28;20892;-76
2024/03/06 05:11:13;;;;;;;25.02;17.38;;;;;;;;;;4941060;28;20035;-75
2024/03/06 05:13:38;;;;;;;24.52;17.40;;;;;;;;;;4941166;28;20488;-75
2024/03/06 05:16:04;;;;;;;23.90;17.05;;;;;;;;;;4926851;29;20394;-76
2024/03/06 05:18:29;;;;;;;23.63;16.45;;;;;;;;;;4925049;29;20027;-75
2024/03/06 05:20:55;;;;;;;21.95;15.93;;;;;;;;;;4940701;29;20027;-76
2024/03/06 05:23:20;;;;;;;22.05;15.93;;;;;;;;;;4926964;29;20489;-75
2024/03/06 05:25:46;;;;;;;22.92;17.10;;;;;;;;;;4942140;29;20579;-75
2024/03/06 05:28:11;;;;;;;22.67;15.98;;;;;;;;;;4940488;28;20090;-80
2024/03/06 05:30:36;;;;;;;21.67;15.88;;;;;;;;;;4943140;29;20046;-80
2024/03/06 05:33:02;;;;;;;22.67;15.75;;;;;;;;;;4944076;29;20038;-80
2024/03/06 05:35:27;;;;;;;23.60;15.88;;;;;;;;;;4941552;29;20043;-81
2024/03/06 05:37:53;;;;;;;22.70;16.25;;;;;;;;;;4925456;29;20533;-80
2024/03/06 05:40:18;;;;;;;22.92;16.60;;;;;;;;;;4943090;29;20474;-81
2024/03/06 05:42:44;;;;;;;22.38;16.25;;;;;;;;;;4942369;29;20078;-81
2024/03/06 05:45:12;;;;;;;22.30;15.60;;;;;;;;;;4927821;29;20482;-80
2024/03/06 05:47:38;;;;;;;22.88;16.30;;;;;;;;;;4945040;29;20031;-81
2024/03/06 05:50:04;;;;;;;26.65;16.73;;;;;;;;;;4943777;29;20041;-80
2024/03/06 05:52:33;;;;;;;24.10;15.48;;;;;;;;;;4939028;28;20398;-80
2024/03/06 05:54:59;;;;;;;20.80;15.30;;;;;;;;;;4942838;28;20019;-80
2024/03/06 05:57:24;;;;;;;21.42;15.52;;;;;;;;;;4940975;28;20027;-80
2024/03/06 05:59:50;;;;;;;19.15;15.00;;;;;;;;;;4941083;28;20377;-81
2024/03/06 06:02:22;;;;;;;22.73;15.25;;;;;;;;;;4941465;28;20395;-80
2024/03/06 06:04:47;;;;;;;23.58;16.38;;;;;;;;;;4949027;29;20034;-80
2024/03/06 06:07:13;;;;;;;21.65;15.45;;;;;;;;;;4948251;28;20434;-80
2024/03/06 06:09:38;;;;;;;21.05;14.98;;;;;;;;;;4950867;28;20122;-80
2024/03/06 06:12:04;;;;;;;21.75;15.50;;;;;;;;;;4948023;28;20023;-78
2024/03/06 06:14:29;;;;;;;20.25;15.05;;;;;;;;;;4945898;28;20351;-78
2024/03/06 06:16:56;;;;;;;21.33;15.25;;;;;;;;;;4951840;28;20027;-79
2024/03/06 06:19:22;;;;;;;20.92;15.38;;;;;;;;;;4954095;29;20034;-78
2024/03/06 06:21:47;;;;;;;22.23;15.20;;;;;;;;;;4948386;29;20027;-79
2024/03/06 06:24:13;;;;;;;21.38;15.55;;;;;;;;;;4950717;29;20413;-78
2024/03/06 06:26:38;;;;;;;23.50;15.80;;;;;;;;;;4948041;29;20541;-78
2024/03/06 06:29:04;;;;;;;20.15;14.65;;;;;;;;;;4952107;29;20033;-78
2024/03/06 06:31:29;;;;;;;21.17;15.43;;;;;;;;;;4947486;28;20110;-79
2024/03/06 06:33:54;;;;;;;21.05;15.63;;;;;;;;;;4950959;29;20019;-78
2024/03/06 06:36:20;;;;;;;21.35;15.23;;;;;;;;;;4950005;29;20034;-79
2024/03/06 06:38:47;;;;;;;20.52;15.43;;;;;;;;;;4954535;28;20058;-79
2024/03/06 06:41:13;;;;;;;18.30;14.27;;;;;;;;;;4935855;29;20107;-78
2024/03/06 06:43:41;;;;;;;18.17;13.32;;;;;;;;;;4951089;29;20059;-78
2024/03/06 06:46:07;;;;;;;16.85;13.50;;;;;;;;;;4949728;28;20097;-79
2024/03/06 06:48:33;;;;;;;18.23;13.65;;;;;;;;;;4953766;28;20393;-79
2024/03/06 06:51:02;;;;;;;18.38;13.75;;;;;;;;;;4934908;29;20147;-79
2024/03/06 06:53:29;;;;;;;17.98;13.45;;;;;;;;;;4950675;29;20114;-78
2024/03/06 06:55:54;;;;;;;18.35;13.57;;;;;;;;;;4956086;29;20511;-78
2024/03/06 06:58:20;;;;;;;19.63;13.80;;;;;;;;;;4939987;29;20146;-79
2024/03/06 07:00:45;;;;;;;18.23;13.82;;;;;;;;;;4934709;29;20478;-79
2024/03/06 07:03:10;;;;;;;18.35;13.18;;;;;;;;;;4933531;28;20027;-78
2024/03/06 07:05:36;;;;;;;17.67;13.02;;;;;;;;;;4945635;28;20039;-78
2024/03/06 07:08:01;;;;;;;17.35;12.93;;;;;;;;;;4954339;29;20031;-78
2024/03/06 07:10:27;;;;;;;16.02;12.60;;;;;;;;;;4950678;29;20483;-79
2024/03/06 07:12:53;;;;;;;15.63;12.20;;;;;;;;;;4931876;29;20501;-79
2024/03/06 07:15:18;;;;;;;16.63;12.68;;;;;;;;;;4951510;28;20031;-78
2024/03/06 07:17:43;;;;;;;16.33;12.93;;;;;;;;;;4953123;28;20106;-78
2024/03/06 07:20:10;;;;;;;15.77;12.25;;;;;;;;;;4947288;29;20441;-78
2024/03/06 07:22:35;;;;;;;15.25;12.02;;;;;;;;;;4954269;29;20038;-78
2024/03/06 07:25:05;;;;;;;14.98;12.02;;;;;;;;;;4933154;29;20114;-79
2024/03/06 07:27:30;;;;;;;15.43;11.90;;;;;;;;;;4933037;29;20097;-78
2024/03/06 07:29:56;;;;;;;15.20;11.95;;;;;;;;;;4938253;29;20063;-78
2024/03/06 07:32:21;;;;;;;15.85;12.43;;;;;;;;;;4936854;29;20038;-78
2024/03/06 07:34:46;;;;;;;15.20;12.68;;;;;;;;;;4946186;29;20027;-78
2024/03/06 07:37:12;;;;;;;15.38;12.32;;;;;;;;;;4948305;29;20414;-78
2024/03/06 07:39:38;;;;;;;15.02;11.90;;;;;;;;;;4950136;28;20026;-78
2024/03/06 07:42:04;;;;;;;14.05;11.73;;;;;;;;;;4948775;29;20034;-78
2024/03/06 07:44:29;;;;;;;15.40;11.65;;;;;;;;;;4952792;28;20393;-78
2024/03/06 07:46:55;;;;;;;15.23;11.98;;;;;;;;;;4945238;29;20027;-78
2024/03/06 07:49:21;;;;;;;14.95;11.63;;;;;;;;;;4938189;29;20461;-75
2024/03/06 07:51:47;;;;;;;16.63;11.90;;;;;;;;;;4951886;29;20484;-75
2024/03/06 07:54:13;;;;;;;14.95;12.52;;;;;;;;;;4942817;28;20062;-75
2024/03/06 07:56:38;;;;;;;17.55;13.02;;;;;;;;;;4951624;28;20042;-75
2024/03/06 07:59:04;;;;;;;16.77;13.00;;;;;;;;;;4936017;29;20034;-75
2024/03/06 08:01:31;;;;;;;16.15;12.55;;;;;;;;;;4936589;29;20035;-75
2024/03/06 08:03:57;;;;;;;16.80;13.18;;;;;;;;;;4938090;28;20027;-75
2024/03/06 08:06:22;;;;;;;16.80;13.27;;;;;;;;;;4954584;29;20378;-75
2024/03/06 08:08:49;;;;;;;18.45;14.70;;;;;;;;;;4948735;29;20106;-75
2024/03/06 08:11:14;;;;;;;18.92;15.13;;;;;;;;;;4949654;29;20030;-75
2024/03/06 08:13:40;;;;;;;19.40;14.32;;;;;;;;;;4951724;28;20123;-75
2024/03/06 08:16:06;;;;;;;19.38;15.68;;;;;;;;;;4928918;29;20032;-75
2024/03/06 08:18:33;;;;;;;18.05;15.10;;;;;;;;;;4952941;29;20027;-75
2024/03/06 08:20:58;;;;;;;18.10;14.52;;;;;;;;;;4949018;29;20390;-75
2024/03/06 08:23:24;;;;;;;17.63;13.60;;;;;;;;;;4952173;29;20023;-75
2024/03/06 08:25:50;;;;;;;17.25;13.27;;;;;;;;;;4929882;29;20035;-75
2024/03/06 08:28:16;;;;;;;17.70;13.63;;;;;;;;;;4952855;28;20477;-75
2024/03/06 08:30:41;;;;;;;17.45;13.43;;;;;;;;;;4948444;28;20039;-75
2024/03/06 08:33:07;;;;;;;17.55;13.27;;;;;;;;;;4950781;28;20040;-75
2024/03/06 08:35:32;;;;;;;15.65;12.65;;;;;;;;;;4937864;29;20016;-75
2024/03/06 08:37:58;;;;;;;17.42;13.23;;;;;;;;;;4948353;28;20027;-76
2024/03/06 08:40:25;;;;;;;16.90;12.45;;;;;;;;;;4951301;29;20905;-75
2024/03/06 08:42:51;;;;;;;18.48;12.63;;;;;;;;;;4948426;29;20076;-75
2024/03/06 08:45:17;;;;;;;18.15;13.73;;;;;;;;;;4931136;29;20118;-76
2024/03/06 08:47:44;;;;;;;17.25;13.57;;;;;;;;;;4947482;29;20069;-76
2024/03/06 08:50:10;;;;;;;18.05;13.05;;;;;;;;;;4951088;28;20078;-75
2024/03/06 08:52:36;;;;;;;16.80;13.27;;;;;;;;;;4949417;28;20099;-75
2024/03/06 08:55:08;;;;;;;19.58;14.32;;;;;;;;;;4951054;29;20114;-75
2024/03/06 08:57:35;;;;;;;18.98;13.20;;;;;;;;;;4950229;28;20027;-75
2024/03/06 09:00:00;;;;;;;20.98;15.20;;;;;;;;;;4949601;28;20118;-75
2024/03/06 09:02:26;;;;;;;19.38;14.48;;;;;;;;;;4947397;28;20305;-75
2024/03/06 09:04:52;;;;;;;19.83;14.98;;;;;;;;;;4948206;28;20204;-76
2024/03/06 09:07:18;;;;;;;23.05;15.73;;;;;;;;;;4949354;29;20038;-75
2024/03/06 09:09:44;;;;;;;20.35;15.52;;;;;;;;;;4937675;29;20023;-75
2024/03/06 09:12:10;;;;;;;19.42;13.82;;;;;;;;;;4951377;29;20031;-75
2024/03/06 09:14:39;;;;;;;20.52;15.90;;;;;;;;;;4953792;28;20035;-75
2024/03/06 09:17:05;;;;;;;21.70;15.85;;;;;;;;;;4941577;29;20086;-75
2024/03/06 09:19:32;;;;;;;21.35;16.10;;;;;;;;;;4951937;29;20063;-75
2024/03/06 09:21:58;;;;;;;19.98;15.45;;;;;;;;;;4943680;29;20501;-75
2024/03/06 09:24:25;;;;;;;19.30;15.05;;;;;;;;;;4938057;29;20107;-76
2024/03/06 09:26:51;;;;;;;19.88;15.95;;;;;;;;;;4947016;29;20031;-75
2024/03/06 09:29:16;;;;;;;21.30;16.55;;;;;;;;;;4945514;28;20030;-76
2024/03/06 09:31:42;;;;;;;19.92;16.20;;;;;;;;;;4945533;29;20062;-76
2024/03/06 09:34:11;;;;;;;23.45;16.67;;;;;;;;;;4940615;29;20477;-76
2024/03/06 09:36:36;;;;;;;20.30;16.02;;;;;;;;;;4947869;29;20073;-75
2024/03/06 09:39:04;;;;;;;22.25;16.52;;;;;;;;;;4937799;29;20456;-76
2024/03/06 09:41:30;;;;;;;21.45;15.88;;;;;;;;;;4936575;29;20027;-75
2024/03/06 09:43:55;;;;;;;23.10;17.33;;;;;;;;;;4942707;29;20065;-75
2024/03/06 09:46:21;;;;;;;19.45;15.57;;;;;;;;;;4953892;28;20106;-76
2024/03/06 09:48:48;;;;;;;22.38;15.80;;;;;;;;;;4953789;29;20055;-75
2024/03/06 09:51:14;;;;;;;23.58;15.77;;;;;;;;;;4952940;29;20042;-76
2024/03/06 09:53:41;;;;;;;25.63;18.35;;;;;;;;;;4953075;29;20035;-75
2024/03/06 09:56:08;;;;;;;29.77;20.50;;;;;;;;;;4953675;29;20023;-76
2024/03/06 09:58:35;;;;;;;27.70;19.58;;;;;;;;;;4950970;29;20015;-75
2024/03/06 10:01:03;;;;;;;29.75;20.77;;;;;;;;;;4948418;28;20019;-76
2024/03/06 10:03:29;;;;;;;28.77;20.75;;;;;;;;;;4954994;28;20039;-75
2024/03/06 10:05:55;;;;;;;31.73;20.92;;;;;;;;;;4950271;28;20023;-76
2024/03/06 10:08:21;;;;;;;29.05;20.98;;;;;;;;;;4947931;29;20019;-78
2024/03/06 10:10:49;;;;;;;31.50;22.15;;;;;;;;;;4944426;29;20043;-78
2024/03/06 10:13:17;;;;;;;32.47;21.73;;;;;;;;;;4952448;29;20031;-78
2024/03/06 10:15:54;;;;;;;30.15;20.45;;;;;;;;;;4951831;28;20114;-78
2024/03/06 10:18:20;;;;;;;29.70;20.65;;;;;;;;;;4952937;29;20023;-78
2024/03/06 10:20:46;;;;;;;30.63;20.30;;;;;;;;;;4949553;28;20045;-78
2024/03/06 10:23:12;;;;;;;32.88;22.15;;;;;;;;;;4950274;28;20086;-78
2024/03/06 10:25:37;;;;;;;28.67;21.67;;;;;;;;;;4956288;29;20086;-78
2024/03/06 10:28:02;;;;;;;28.05;20.92;;;;;;;;;;4949497;29;20023;-78
2024/03/06 10:30:28;;;;;;;30.58;21.83;;;;;;;;;;4947698;28;20031;-78
2024/03/06 10:32:53;;;;;;;31.02;22.27;;;;;;;;;;4932847;29;20031;-78
2024/03/06 10:35:20;;;;;;;30.70;21.75;;;;;;;;;;4951342;29;20046;-78
2024/03/06 10:37:46;;;;;;;31.05;21.17;;;;;;;;;;4948086;28;20505;-78
2024/03/06 10:40:14;;;;;;;30.17;20.83;;;;;;;;;;4956807;29;20019;-78
2024/03/06 10:42:42;;;;;;;29.67;20.55;;;;;;;;;;4947573;29;20039;-78
2024/03/06 10:45:12;;;;;;;28.50;20.60;;;;;;;;;;4949328;28;20058;-78
2024/03/06 10:47:40;;;;;;;28.20;19.85;;;;;;;;;;4953626;29;20035;-79
2024/03/06 10:50:10;;;;;;;28.60;19.40;;;;;;;;;;4937368;29;20034;-79
2024/03/06 10:52:38;;;;;;;27.92;19.75;;;;;;;;;;4940736;28;20035;-78
2024/03/06 10:55:04;;;;;;;29.88;20.45;;;;;;;;;;4951804;28;20027;-78
2024/03/06 10:57:30;;;;;;;28.20;18.98;;;;;;;;;;4943431;29;20055;-78
2024/03/06 10:59:59;;;;;;;28.80;19.40;;;;;;;;;;4949447;28;20397;-78
2024/03/06 11:02:24;;;;;;;26.88;18.88;;;;;;;;;;4953423;28;20031;-78
2024/03/06 11:04:51;;;;;;;27.30;19.30;;;;;;;;;;4937402;29;20031;-78
2024/03/06 11:07:17;;;;;;;24.73;18.10;;;;;;;;;;4945227;28;20055;-78
2024/03/06 11:09:42;;;;;;;27.52;20.27;;;;;;;;;;4955595;28;20058;-78
2024/03/06 11:12:08;;;;;;;25.23;19.13;;;;;;;;;;4941819;29;20028;-78
2024/03/06 11:14:38;;;;;;;28.73;20.55;;;;;;;;;;4943706;28;20516;-79
2024/03/06 11:17:03;;;;;;;28.33;20.25;;;;;;;;;;4939626;28;20034;-78
2024/03/06 11:19:52;;;;;;;28.67;20.85;;;;;;;;;;4938235;29;20031;-78
2024/03/06 11:22:18;;;;;;;26.60;20.23;;;;;;;;;;4953111;29;20050;-78
2024/03/06 11:24:43;;;;;;;27.25;20.08;;;;;;;;;;4957280;28;20065;-78
2024/03/06 11:27:11;;;;;;;28.23;20.15;;;;;;;;;;4936071;29;20130;-78
2024/03/06 11:30:10;;;;;;;29.33;20.88;;;;;;;;;;4952808;29;20374;-78
2024/03/06 11:32:37;;;;;;;29.33;19.95;;;;;;;;;;4953721;28;20023;-78
2024/03/06 11:35:06;;;;;;;29.52;19.52;;;;;;;;;;4940899;29;20027;-78
2024/03/06 11:37:34;;;;;;;29.77;21.02;;;;;;;;;;4946391;28;20050;-78
2024/03/06 11:40:01;;;;;;;29.52;19.50;;;;;;;;;;4950336;28;20027;-78
2024/03/06 11:42:35;;;;;;;28.27;20.65;;;;;;;;;;4953431;29;20035;-78
2024/03/06 11:45:13;;;;;;;26.88;19.27;;;;;;;;;;4942943;28;20031;-78
2024/03/06 11:47:56;;;;;;;29.50;19.92;;;;;;;;;;4932115;29;20038;-79
2024/03/06 11:50:21;;;;;;;26.23;18.83;;;;;;;;;;4948563;29;20062;-78
2024/03/06 11:52:47;;;;;;;27.75;20.10;;;;;;;;;;4951095;29;20043;-78
2024/03/06 11:55:13;;;;;;;28.23;19.42;;;;;;;;;;4947650;29;20121;-78
2024/03/06 11:57:39;;;;;;;27.05;19.60;;;;;;;;;;4939612;29;20019;-77
2024/03/06 12:00:06;;;;;;;28.17;20.25;;;;;;;;;;4946804;28;20027;-78
2024/03/06 12:02:32;;;;;;;26.80;19.52;;;;;;;;;;4934985;28;20405;-78
2024/03/06 12:05:02;;;;;;;28.63;19.35;;;;;;;;;;4950794;28;20050;-78
2024/03/06 12:07:29;;;;;;;27.48;19.95;;;;;;;;;;4951634;29;20121;-77
2024/03/06 12:09:57;;;;;;;29.73;19.95;;;;;;;;;;4955885;29;20490;-78
2024/03/06 12:12:24;;;;;;;30.42;20.52;;;;;;;;;;4955226;29;20564;-78
2024/03/06 12:14:58;;;;;;;27.67;20.17;;;;;;;;;;4949741;28;20027;-78
2024/03/06 12:17:24;;;;;;;27.50;19.50;;;;;;;;;;4943183;28;20122;-78
2024/03/06 12:19:50;;;;;;;27.25;19.17;;;;;;;;;;4942541;29;20108;-78
2024/03/06 12:22:15;;;;;;;26.33;18.60;;;;;;;;;;4951687;28;20499;-79
2024/03/06 12:24:41;;;;;;;26.80;20.05;;;;;;;;;;4943088;29;20031;-78
2024/03/06 12:27:07;;;;;;;28.65;20.67;;;;;;;;;;4947340;29;20265;-78
2024/03/06 12:29:34;;;;;;;30.70;20.27;;;;;;;;;;4953302;28;20048;-78
2024/03/06 12:32:01;;;;;;;29.85;21.05;;;;;;;;;;4945093;29;20040;-78
2024/03/06 12:34:26;;;;;;;27.25;18.65;;;;;;;;;;4951248;29;20030;-78
2024/03/06 12:36:52;;;;;;;28.08;19.30;;;;;;;;;;4926711;29;20032;-78
2024/03/06 12:39:21;;;;;;;28.17;19.42;;;;;;;;;;4951369;28;20034;-78
2024/03/06 12:41:47;;;;;;;26.55;18.15;;;;;;;;;;4950663;29;20394;-78
2024/03/06 12:44:13;;;;;;;25.73;18.08;;;;;;;;;;4932212;29;20474;-78
2024/03/06 12:46:38;;;;;;;24.50;17.55;;;;;;;;;;4946533;28;20089;-78
2024/03/06 12:49:04;;;;;;;22.75;16.13;;;;;;;;;;4947911;28;20489;-78
2024/03/06 12:51:29;;;;;;;24.50;18.52;;;;;;;;;;4951364;29;20023;-78
2024/03/06 12:53:54;;;;;;;25.10;17.25;;;;;;;;;;4947676;29;20023;-78
2024/03/06 12:56:20;;;;;;;22.85;16.20;;;;;;;;;;4950116;29;20024;-78
2024/03/06 12:58:45;;;;;;;23.25;16.25;;;;;;;;;;4945904;29;20038;-78
2024/03/06 13:01:11;;;;;;;25.38;17.02;;;;;;;;;;4946449;28;20105;-78
2024/03/06 13:03:37;;;;;;;23.58;15.43;;;;;;;;;;4937422;28;20031;-78
2024/03/06 13:06:04;;;;;;;23.23;15.65;;;;;;;;;;4930783;29;20024;-78
2024/03/06 13:08:29;;;;;;;21.83;15.20;;;;;;;;;;4951547;29;20062;-78
2024/03/06 13:10:55;;;;;;;20.95;14.90;;;;;;;;;;4953382;29;20070;-78
2024/03/06 13:13:23;;;;;;;21.73;14.27;;;;;;;;;;4938803;29;20480;-78
2024/03/06 13:15:49;;;;;;;19.55;13.52;;;;;;;;;;4953267;28;20027;-78
2024/03/06 13:18:15;;;;;;;17.25;12.35;;;;;;;;;;4934470;29;20436;-78
2024/03/06 13:20:41;;;;;;;20.60;13.40;;;;;;;;;;4954375;29;20019;-78
2024/03/06 13:23:06;;;;;;;17.50;12.60;;;;;;;;;;4945065;29;20023;-78
2024/03/06 13:25:31;;;;;;;19.20;12.68;;;;;;;;;;4935143;29;20039;-78
2024/03/06 13:27:57;;;;;;;17.65;11.65;;;;;;;;;;4947809;29;20027;-78
2024/03/06 13:30:23;;;;;;;20.40;11.75;;;;;;;;;;4946722;28;20118;-78
2024/03/06 13:32:48;;;;;;;16.58;10.88;;;;;;;;;;4951503;29;20023;-78
2024/03/06 13:35:13;;;;;;;16.13;10.80;;;;;;;;;;4959987;28;20457;-78
2024/03/06 13:37:40;;;;;;;15.90;10.90;;;;;;;;;;4946220;28;20797;-78
2024/03/06 13:40:08;;;;;;;17.73;11.30;;;;;;;;;;4952262;28;20487;-78
2024/03/06 13:42:33;;;;;;;14.88;10.13;;;;;;;;;;4955989;28;20401;-78
2024/03/06 13:44:59;;;;;;;15.98;10.23;;;;;;;;;;4955597;28;20069;-78
2024/03/06 13:47:24;;;;;;;16.27;10.57;;;;;;;;;;4949941;28;20020;-78
2024/03/06 13:49:49;;;;;;;15.20;10.30;;;;;;;;;;4925827;29;20028;-78
2024/03/06 13:52:19;;;;;;;15.32;10.20;;;;;;;;;;4953430;29;20038;-78
2024/03/06 13:54:45;;;;;;;14.65;9.40;;;;;;;;;;4950077;29;20026;-78
2024/03/06 13:57:11;;;;;;;14.10;9.55;;;;;;;;;;4949261;29;20106;-78
2024/03/06 13:59:37;;;;;;;13.85;9.73;;;;;;;;;;4934308;28;20083;-79
2024/03/06 14:02:03;;;;;;;14.93;8.77;;;;;;;;;;4934812;28;20031;-78
2024/03/06 14:04:29;;;;;;;14.90;9.90;;;;;;;;;;4953385;28;20556;-78
2024/03/06 14:06:54;;;;;;;13.48;8.68;;;;;;;;;;4953325;29;20023;-78
2024/03/06 14:09:20;;;;;;;13.63;8.57;;;;;;;;;;4953921;29;20070;-78
2024/03/06 14:11:49;;;;;;;13.38;8.18;;;;;;;;;;4950888;29;20054;-78
2024/03/06 14:14:14;;;;;;;11.55;6.75;;;;;;;;;;4946125;29;20062;-78
2024/03/06 14:16:42;;;;;;;11.05;7.10;;;;;;;;;;4947486;28;20035;-78